sensor_id;sensor_type;location;lat;lon;timestamp;P1;durP1;ratioP1;P2;durP2;ratioP2
20713;SDS011;10518;50.742;4.226;2023-08-24T00:00:09;3.58;;;1.65;;
20713;SDS011;10518;50.742;4.226;2023-08-24T00:02:35;2.42;;;1.80;;
20713;SDS011;10518;50.742;4.226;2023-08-24T00:05:02;4.90;;;2.10;;
20713;SDS011;10518;50.742;4.226;2023-08-24T00:07:28;3.25;;;1.95;;
20713;SDS011;10518;50.742;4.226;2023-08-24T00:09:54;3.03;;;2.17;;
20713;SDS011;10518;50.742;4.226;2023-08-24T00:12:20;9.65;;;1.90;;
20713;SDS011;10518;50.742;4.226;2023-08-24T00:14:45;2.85;;;1.75;;
20713;SDS011;10518;50.742;4.226;2023-08-24T00:17:11;4.68;;;1.90;;
20713;SDS011;10518;50.742;4.226;2023-08-24T00:19:36;4.30;;;1.85;;
20713;SDS011;10518;50.742;4.226;2023-08-24T00:22:02;2.55;;;1.65;;
20713;SDS011;10518;50.742;4.226;2023-08-24T00:24:29;5.82;;;2.22;;
20713;SDS011;10518;50.742;4.226;2023-08-24T00:26:54;6.25;;;1.98;;
20713;SDS011;10518;50.742;4.226;2023-08-24T00:29:20;3.78;;;2.15;;
20713;SDS011;10518;50.742;4.226;2023-08-24T00:31:47;3.38;;;2.17;;
20713;SDS011;10518;50.742;4.226;2023-08-24T00:34:12;3.30;;;1.95;;
20713;SDS011;10518;50.742;4.226;2023-08-24T00:36:38;3.30;;;2.05;;
20713;SDS011;10518;50.742;4.226;2023-08-24T00:39:04;2.33;;;1.70;;
20713;SDS011;10518;50.742;4.226;2023-08-24T00:41:29;2.63;;;1.85;;
20713;SDS011;10518;50.742;4.226;2023-08-24T00:43:55;3.55;;;2.00;;
20713;SDS011;10518;50.742;4.226;2023-08-24T00:46:20;2.78;;;1.58;;
20713;SDS011;10518;50.742;4.226;2023-08-24T00:48:48;3.13;;;2.22;;
20713;SDS011;10518;50.742;4.226;2023-08-24T00:51:14;3.85;;;2.13;;
20713;SDS011;10518;50.742;4.226;2023-08-24T00:53:40;4.82;;;2.03;;
20713;SDS011;10518;50.742;4.226;2023-08-24T00:56:05;3.05;;;2.03;;
20713;SDS011;10518;50.742;4.226;2023-08-24T00:58:31;6.03;;;2.03;;
20713;SDS011;10518;50.742;4.226;2023-08-24T01:00:58;4.07;;;2.63;;
20713;SDS011;10518;50.742;4.226;2023-08-24T01:03:24;3.65;;;2.17;;
20713;SDS011;10518;50.742;4.226;2023-08-24T01:05:50;4.55;;;2.22;;
20713;SDS011;10518;50.742;4.226;2023-08-24T01:08:16;5.90;;;2.20;;
20713;SDS011;10518;50.742;4.226;2023-08-24T01:10:50;9.88;;;2.05;;
20713;SDS011;10518;50.742;4.226;2023-08-24T01:13:27;5.22;;;2.30;;
20713;SDS011;10518;50.742;4.226;2023-08-24T01:16:20;3.45;;;1.88;;
20713;SDS011;10518;50.742;4.226;2023-08-24T01:18:47;4.03;;;1.98;;
20713;SDS011;10518;50.742;4.226;2023-08-24T01:21:13;2.75;;;2.08;;
20713;SDS011;10518;50.742;4.226;2023-08-24T01:23:44;7.90;;;2.10;;
20713;SDS011;10518;50.742;4.226;2023-08-24T01:26:19;4.35;;;2.15;;
20713;SDS011;10518;50.742;4.226;2023-08-24T01:28:46;5.15;;;2.40;;
20713;SDS011;10518;50.742;4.226;2023-08-24T01:31:13;4.88;;;2.10;;
20713;SDS011;10518;50.742;4.226;2023-08-24T01:33:40;3.53;;;2.20;;
20713;SDS011;10518;50.742;4.226;2023-08-24T01:36:06;3.45;;;2.33;;
20713;SDS011;10518;50.742;4.226;2023-08-24T01:38:33;2.63;;;1.90;;
20713;SDS011;10518;50.742;4.226;2023-08-24T01:41:02;3.53;;;2.20;;
20713;SDS011;10518;50.742;4.226;2023-08-24T01:43:34;4.30;;;2.25;;
20713;SDS011;10518;50.742;4.226;2023-08-24T01:46:03;4.85;;;2.03;;
20713;SDS011;10518;50.742;4.226;2023-08-24T01:48:30;4.40;;;2.63;;
20713;SDS011;10518;50.742;4.226;2023-08-24T01:50:57;6.32;;;2.45;;
20713;SDS011;10518;50.742;4.226;2023-08-24T01:53:24;8.45;;;1.95;;
20713;SDS011;10518;50.742;4.226;2023-08-24T01:55:51;4.03;;;2.35;;
20713;SDS011;10518;50.742;4.226;2023-08-24T01:58:18;4.13;;;2.10;;
20713;SDS011;10518;50.742;4.226;2023-08-24T02:00:44;2.67;;;1.70;;
20713;SDS011;10518;50.742;4.226;2023-08-24T02:03:10;2.63;;;1.90;;
20713;SDS011;10518;50.742;4.226;2023-08-24T02:05:35;3.97;;;2.08;;
20713;SDS011;10518;50.742;4.226;2023-08-24T02:08:01;6.32;;;2.53;;
20713;SDS011;10518;50.742;4.226;2023-08-24T02:10:27;3.80;;;2.05;;
20713;SDS011;10518;50.742;4.226;2023-08-24T02:12:53;2.67;;;1.73;;
20713;SDS011;10518;50.742;4.226;2023-08-24T02:15:18;2.60;;;2.10;;
20713;SDS011;10518;50.742;4.226;2023-08-24T02:17:44;3.55;;;1.83;;
20713;SDS011;10518;50.742;4.226;2023-08-24T02:20:10;4.10;;;2.20;;
20713;SDS011;10518;50.742;4.226;2023-08-24T02:22:36;4.95;;;2.53;;
20713;SDS011;10518;50.742;4.226;2023-08-24T02:25:02;3.72;;;2.33;;
20713;SDS011;10518;50.742;4.226;2023-08-24T02:27:30;3.15;;;2.03;;
20713;SDS011;10518;50.742;4.226;2023-08-24T02:29:56;5.43;;;2.63;;
20713;SDS011;10518;50.742;4.226;2023-08-24T02:32:21;3.42;;;2.08;;
20713;SDS011;10518;50.742;4.226;2023-08-24T02:34:47;2.58;;;1.92;;
20713;SDS011;10518;50.742;4.226;2023-08-24T02:37:13;2.92;;;2.10;;
20713;SDS011;10518;50.742;4.226;2023-08-24T02:39:38;6.10;;;2.50;;
20713;SDS011;10518;50.742;4.226;2023-08-24T02:42:04;4.45;;;1.98;;
20713;SDS011;10518;50.742;4.226;2023-08-24T02:44:30;6.88;;;2.50;;
20713;SDS011;10518;50.742;4.226;2023-08-24T02:46:56;3.65;;;2.20;;
20713;SDS011;10518;50.742;4.226;2023-08-24T02:49:22;3.92;;;2.20;;
20713;SDS011;10518;50.742;4.226;2023-08-24T02:51:48;3.05;;;2.45;;
20713;SDS011;10518;50.742;4.226;2023-08-24T02:54:13;3.75;;;2.35;;
20713;SDS011;10518;50.742;4.226;2023-08-24T02:56:39;3.45;;;2.50;;
20713;SDS011;10518;50.742;4.226;2023-08-24T02:59:05;5.80;;;2.53;;
20713;SDS011;10518;50.742;4.226;2023-08-24T03:01:30;3.75;;;2.35;;
20713;SDS011;10518;50.742;4.226;2023-08-24T03:03:56;3.95;;;2.47;;
20713;SDS011;10518;50.742;4.226;2023-08-24T03:06:22;3.97;;;2.40;;
20713;SDS011;10518;50.742;4.226;2023-08-24T03:08:49;4.95;;;2.50;;
20713;SDS011;10518;50.742;4.226;2023-08-24T03:11:15;6.47;;;2.70;;
20713;SDS011;10518;50.742;4.226;2023-08-24T03:13:40;4.13;;;2.35;;
20713;SDS011;10518;50.742;4.226;2023-08-24T03:16:06;5.93;;;2.53;;
20713;SDS011;10518;50.742;4.226;2023-08-24T03:18:33;3.47;;;2.60;;
20713;SDS011;10518;50.742;4.226;2023-08-24T03:20:58;4.07;;;1.98;;
20713;SDS011;10518;50.742;4.226;2023-08-24T03:23:24;5.13;;;2.65;;
20713;SDS011;10518;50.742;4.226;2023-08-24T03:25:50;3.53;;;2.20;;
20713;SDS011;10518;50.742;4.226;2023-08-24T03:28:16;3.70;;;2.38;;
20713;SDS011;10518;50.742;4.226;2023-08-24T03:30:46;4.38;;;2.50;;
20713;SDS011;10518;50.742;4.226;2023-08-24T03:33:13;3.40;;;2.08;;
20713;SDS011;10518;50.742;4.226;2023-08-24T03:35:39;4.18;;;2.40;;
20713;SDS011;10518;50.742;4.226;2023-08-24T03:38:05;4.13;;;2.28;;
20713;SDS011;10518;50.742;4.226;2023-08-24T03:40:30;3.65;;;2.47;;
20713;SDS011;10518;50.742;4.226;2023-08-24T03:42:56;5.57;;;2.65;;
20713;SDS011;10518;50.742;4.226;2023-08-24T03:45:22;4.43;;;2.47;;
20713;SDS011;10518;50.742;4.226;2023-08-24T03:47:48;3.90;;;2.20;;
20713;SDS011;10518;50.742;4.226;2023-08-24T03:50:14;4.40;;;2.33;;
20713;SDS011;10518;50.742;4.226;2023-08-24T03:52:40;4.65;;;2.60;;
20713;SDS011;10518;50.742;4.226;2023-08-24T03:55:06;5.68;;;3.00;;
20713;SDS011;10518;50.742;4.226;2023-08-24T03:57:32;5.03;;;2.60;;
20713;SDS011;10518;50.742;4.226;2023-08-24T03:59:58;3.30;;;2.20;;
20713;SDS011;10518;50.742;4.226;2023-08-24T04:02:24;3.03;;;2.45;;
20713;SDS011;10518;50.742;4.226;2023-08-24T04:04:51;4.07;;;2.22;;
20713;SDS011;10518;50.742;4.226;2023-08-24T04:07:17;3.92;;;2.40;;
20713;SDS011;10518;50.742;4.226;2023-08-24T04:09:43;3.53;;;2.38;;
20713;SDS011;10518;50.742;4.226;2023-08-24T04:12:10;3.22;;;2.75;;
20713;SDS011;10518;50.742;4.226;2023-08-24T04:14:36;4.93;;;2.50;;
20713;SDS011;10518;50.742;4.226;2023-08-24T04:17:01;5.15;;;2.88;;
20713;SDS011;10518;50.742;4.226;2023-08-24T04:19:27;4.57;;;2.30;;
20713;SDS011;10518;50.742;4.226;2023-08-24T04:21:52;7.40;;;2.15;;
20713;SDS011;10518;50.742;4.226;2023-08-24T04:24:18;5.63;;;2.50;;
20713;SDS011;10518;50.742;4.226;2023-08-24T04:26:44;3.85;;;2.30;;
20713;SDS011;10518;50.742;4.226;2023-08-24T04:29:09;6.78;;;2.60;;
20713;SDS011;10518;50.742;4.226;2023-08-24T04:31:35;4.43;;;2.50;;
20713;SDS011;10518;50.742;4.226;2023-08-24T04:34:02;4.18;;;2.08;;
20713;SDS011;10518;50.742;4.226;2023-08-24T04:36:29;4.65;;;2.70;;
20713;SDS011;10518;50.742;4.226;2023-08-24T04:38:54;3.92;;;2.30;;
20713;SDS011;10518;50.742;4.226;2023-08-24T04:41:20;4.85;;;2.58;;
20713;SDS011;10518;50.742;4.226;2023-08-24T04:43:46;3.55;;;2.38;;
20713;SDS011;10518;50.742;4.226;2023-08-24T04:46:11;6.00;;;2.75;;
20713;SDS011;10518;50.742;4.226;2023-08-24T04:48:37;4.18;;;2.72;;
20713;SDS011;10518;50.742;4.226;2023-08-24T04:51:02;3.50;;;2.50;;
20713;SDS011;10518;50.742;4.226;2023-08-24T04:53:28;3.20;;;2.42;;
20713;SDS011;10518;50.742;4.226;2023-08-24T04:55:54;4.30;;;2.08;;
20713;SDS011;10518;50.742;4.226;2023-08-24T04:58:20;3.33;;;2.25;;
20713;SDS011;10518;50.742;4.226;2023-08-24T05:00:46;3.35;;;2.22;;
20713;SDS011;10518;50.742;4.226;2023-08-24T05:03:13;3.72;;;2.38;;
20713;SDS011;10518;50.742;4.226;2023-08-24T05:05:39;5.90;;;2.38;;
20713;SDS011;10518;50.742;4.226;2023-08-24T05:08:05;3.67;;;2.35;;
20713;SDS011;10518;50.742;4.226;2023-08-24T05:10:32;4.40;;;2.78;;
20713;SDS011;10518;50.742;4.226;2023-08-24T05:12:58;3.50;;;2.20;;
20713;SDS011;10518;50.742;4.226;2023-08-24T05:15:24;5.45;;;2.88;;
20713;SDS011;10518;50.742;4.226;2023-08-24T05:17:50;5.10;;;2.50;;
20713;SDS011;10518;50.742;4.226;2023-08-24T05:20:19;4.85;;;2.63;;
20713;SDS011;10518;50.742;4.226;2023-08-24T05:22:48;2.72;;;2.30;;
20713;SDS011;10518;50.742;4.226;2023-08-24T05:25:13;2.97;;;2.38;;
20713;SDS011;10518;50.742;4.226;2023-08-24T05:27:41;5.63;;;2.08;;
20713;SDS011;10518;50.742;4.226;2023-08-24T05:30:07;3.63;;;2.10;;
20713;SDS011;10518;50.742;4.226;2023-08-24T05:32:33;5.60;;;2.30;;
20713;SDS011;10518;50.742;4.226;2023-08-24T05:35:03;4.20;;;1.90;;
20713;SDS011;10518;50.742;4.226;2023-08-24T05:37:28;2.95;;;2.10;;
20713;SDS011;10518;50.742;4.226;2023-08-24T05:39:54;4.60;;;2.20;;
20713;SDS011;10518;50.742;4.226;2023-08-24T05:42:20;2.53;;;2.00;;
20713;SDS011;10518;50.742;4.226;2023-08-24T05:44:45;3.97;;;2.40;;
20713;SDS011;10518;50.742;4.226;2023-08-24T05:47:11;3.60;;;2.38;;
20713;SDS011;10518;50.742;4.226;2023-08-24T05:49:36;3.70;;;2.47;;
20713;SDS011;10518;50.742;4.226;2023-08-24T05:52:02;3.10;;;2.15;;
20713;SDS011;10518;50.742;4.226;2023-08-24T05:54:28;4.72;;;2.30;;
20713;SDS011;10518;50.742;4.226;2023-08-24T05:56:53;5.47;;;2.22;;
20713;SDS011;10518;50.742;4.226;2023-08-24T05:59:19;3.55;;;2.42;;
20713;SDS011;10518;50.742;4.226;2023-08-24T06:01:45;4.13;;;2.78;;
20713;SDS011;10518;50.742;4.226;2023-08-24T06:04:10;3.58;;;2.15;;
20713;SDS011;10518;50.742;4.226;2023-08-24T06:06:36;4.63;;;2.45;;
20713;SDS011;10518;50.742;4.226;2023-08-24T06:09:02;3.17;;;2.35;;
20713;SDS011;10518;50.742;4.226;2023-08-24T06:11:32;3.95;;;2.17;;
20713;SDS011;10518;50.742;4.226;2023-08-24T06:13:58;4.70;;;2.15;;
20713;SDS011;10518;50.742;4.226;2023-08-24T06:16:24;4.32;;;2.15;;
20713;SDS011;10518;50.742;4.226;2023-08-24T06:18:49;4.20;;;2.08;;
20713;SDS011;10518;50.742;4.226;2023-08-24T06:21:15;2.35;;;1.70;;
20713;SDS011;10518;50.742;4.226;2023-08-24T06:23:41;3.90;;;1.77;;
20713;SDS011;10518;50.742;4.226;2023-08-24T06:26:07;3.40;;;1.80;;
20713;SDS011;10518;50.742;4.226;2023-08-24T06:28:33;4.00;;;2.10;;
20713;SDS011;10518;50.742;4.226;2023-08-24T06:30:59;3.00;;;1.85;;
20713;SDS011;10518;50.742;4.226;2023-08-24T06:33:28;3.55;;;1.70;;
20713;SDS011;10518;50.742;4.226;2023-08-24T06:35:55;3.53;;;1.92;;
20713;SDS011;10518;50.742;4.226;2023-08-24T06:38:21;5.15;;;2.20;;
20713;SDS011;10518;50.742;4.226;2023-08-24T06:40:47;3.42;;;1.63;;
20713;SDS011;10518;50.742;4.226;2023-08-24T06:43:13;4.50;;;1.88;;
20713;SDS011;10518;50.742;4.226;2023-08-24T06:45:39;3.05;;;1.70;;
20713;SDS011;10518;50.742;4.226;2023-08-24T06:48:05;2.90;;;1.90;;
20713;SDS011;10518;50.742;4.226;2023-08-24T06:50:32;2.67;;;1.73;;
20713;SDS011;10518;50.742;4.226;2023-08-24T06:52:58;4.35;;;1.90;;
20713;SDS011;10518;50.742;4.226;2023-08-24T06:55:24;4.13;;;1.85;;
20713;SDS011;10518;50.742;4.226;2023-08-24T06:57:50;3.53;;;2.05;;
20713;SDS011;10518;50.742;4.226;2023-08-24T07:00:16;3.38;;;1.80;;
20713;SDS011;10518;50.742;4.226;2023-08-24T07:02:44;2.85;;;2.13;;
20713;SDS011;10518;50.742;4.226;2023-08-24T07:05:11;4.43;;;1.88;;
20713;SDS011;10518;50.742;4.226;2023-08-24T07:07:37;1.88;;;1.63;;
20713;SDS011;10518;50.742;4.226;2023-08-24T07:10:03;3.05;;;1.67;;
20713;SDS011;10518;50.742;4.226;2023-08-24T07:12:29;2.17;;;1.73;;
20713;SDS011;10518;50.742;4.226;2023-08-24T07:14:55;2.97;;;1.90;;
20713;SDS011;10518;50.742;4.226;2023-08-24T07:17:20;2.00;;;1.60;;
20713;SDS011;10518;50.742;4.226;2023-08-24T07:19:46;2.83;;;1.48;;
20713;SDS011;10518;50.742;4.226;2023-08-24T07:22:12;3.45;;;1.55;;
20713;SDS011;10518;50.742;4.226;2023-08-24T07:24:39;5.45;;;2.17;;
20713;SDS011;10518;50.742;4.226;2023-08-24T07:27:04;5.70;;;1.83;;
20713;SDS011;10518;50.742;4.226;2023-08-24T07:29:30;2.40;;;1.92;;
20713;SDS011;10518;50.742;4.226;2023-08-24T07:31:56;4.53;;;1.70;;
20713;SDS011;10518;50.742;4.226;2023-08-24T07:34:22;1.98;;;1.50;;
20713;SDS011;10518;50.742;4.226;2023-08-24T07:36:48;3.05;;;1.90;;
20713;SDS011;10518;50.742;4.226;2023-08-24T07:39:14;3.17;;;1.63;;
20713;SDS011;10518;50.742;4.226;2023-08-24T07:41:40;3.92;;;1.90;;
20713;SDS011;10518;50.742;4.226;2023-08-24T07:44:07;2.85;;;1.80;;
20713;SDS011;10518;50.742;4.226;2023-08-24T07:46:33;2.88;;;1.80;;
20713;SDS011;10518;50.742;4.226;2023-08-24T07:48:58;2.22;;;1.90;;
20713;SDS011;10518;50.742;4.226;2023-08-24T07:51:24;2.42;;;2.10;;
20713;SDS011;10518;50.742;4.226;2023-08-24T07:53:50;4.50;;;2.47;;
20713;SDS011;10518;50.742;4.226;2023-08-24T07:56:17;3.00;;;2.58;;
20713;SDS011;10518;50.742;4.226;2023-08-24T07:58:44;4.30;;;1.70;;
20713;SDS011;10518;50.742;4.226;2023-08-24T08:01:09;4.80;;;2.00;;
20713;SDS011;10518;50.742;4.226;2023-08-24T08:03:36;3.65;;;1.85;;
20713;SDS011;10518;50.742;4.226;2023-08-24T08:06:02;2.95;;;2.00;;
20713;SDS011;10518;50.742;4.226;2023-08-24T08:08:28;8.18;;;2.05;;
20713;SDS011;10518;50.742;4.226;2023-08-24T08:10:57;2.42;;;1.92;;
20713;SDS011;10518;50.742;4.226;2023-08-24T08:13:25;4.85;;;1.92;;
20713;SDS011;10518;50.742;4.226;2023-08-24T08:15:51;5.93;;;2.17;;
20713;SDS011;10518;50.742;4.226;2023-08-24T08:18:17;5.55;;;2.35;;
20713;SDS011;10518;50.742;4.226;2023-08-24T08:20:42;4.03;;;2.10;;
20713;SDS011;10518;50.742;4.226;2023-08-24T08:23:08;4.88;;;2.03;;
20713;SDS011;10518;50.742;4.226;2023-08-24T08:25:33;3.38;;;1.85;;
20713;SDS011;10518;50.742;4.226;2023-08-24T08:27:59;2.65;;;1.85;;
20713;SDS011;10518;50.742;4.226;2023-08-24T08:30:25;4.38;;;2.40;;
20713;SDS011;10518;50.742;4.226;2023-08-24T08:32:50;4.80;;;2.17;;
20713;SDS011;10518;50.742;4.226;2023-08-24T08:35:17;3.08;;;2.13;;
20713;SDS011;10518;50.742;4.226;2023-08-24T08:37:44;4.32;;;2.28;;
20713;SDS011;10518;50.742;4.226;2023-08-24T08:40:11;8.02;;;2.30;;
20713;SDS011;10518;50.742;4.226;2023-08-24T08:42:37;4.15;;;2.38;;
20713;SDS011;10518;50.742;4.226;2023-08-24T08:45:04;2.88;;;1.73;;
20713;SDS011;10518;50.742;4.226;2023-08-24T08:47:33;3.33;;;2.03;;
20713;SDS011;10518;50.742;4.226;2023-08-24T08:49:59;3.83;;;2.03;;
20713;SDS011;10518;50.742;4.226;2023-08-24T08:52:29;3.83;;;1.88;;
20713;SDS011;10518;50.742;4.226;2023-08-24T08:54:56;4.00;;;2.55;;
20713;SDS011;10518;50.742;4.226;2023-08-24T08:57:22;4.15;;;1.98;;
20713;SDS011;10518;50.742;4.226;2023-08-24T08:59:50;5.68;;;2.40;;
20713;SDS011;10518;50.742;4.226;2023-08-24T09:02:20;4.70;;;2.05;;
20713;SDS011;10518;50.742;4.226;2023-08-24T09:04:48;4.05;;;2.40;;
20713;SDS011;10518;50.742;4.226;2023-08-24T09:07:15;3.10;;;1.85;;
20713;SDS011;10518;50.742;4.226;2023-08-24T09:09:41;5.55;;;2.25;;
20713;SDS011;10518;50.742;4.226;2023-08-24T09:12:08;7.38;;;2.40;;
20713;SDS011;10518;50.742;4.226;2023-08-24T09:14:34;3.55;;;2.05;;
20713;SDS011;10518;50.742;4.226;2023-08-24T09:17:00;4.20;;;2.20;;
20713;SDS011;10518;50.742;4.226;2023-08-24T09:19:29;4.10;;;1.90;;
20713;SDS011;10518;50.742;4.226;2023-08-24T09:21:59;7.25;;;2.70;;
20713;SDS011;10518;50.742;4.226;2023-08-24T09:24:32;4.55;;;2.80;;
20713;SDS011;10518;50.742;4.226;2023-08-24T09:26:59;4.10;;;2.50;;
20713;SDS011;10518;50.742;4.226;2023-08-24T09:29:28;8.48;;;3.83;;
20713;SDS011;10518;50.742;4.226;2023-08-24T09:32:02;5.88;;;3.55;;
20713;SDS011;10518;50.742;4.226;2023-08-24T09:34:27;7.25;;;4.30;;
20713;SDS011;10518;50.742;4.226;2023-08-24T09:36:56;6.90;;;4.20;;
20713;SDS011;10518;50.742;4.226;2023-08-24T09:39:22;6.32;;;3.90;;
20713;SDS011;10518;50.742;4.226;2023-08-24T09:41:49;8.27;;;4.03;;
20713;SDS011;10518;50.742;4.226;2023-08-24T09:44:19;5.60;;;3.72;;
20713;SDS011;10518;50.742;4.226;2023-08-24T09:46:45;10.52;;;4.22;;
20713;SDS011;10518;50.742;4.226;2023-08-24T09:49:11;8.40;;;4.28;;
20713;SDS011;10518;50.742;4.226;2023-08-24T09:51:38;5.88;;;3.78;;
20713;SDS011;10518;50.742;4.226;2023-08-24T09:54:06;6.85;;;4.00;;
20713;SDS011;10518;50.742;4.226;2023-08-24T09:56:34;8.02;;;3.75;;
20713;SDS011;10518;50.742;4.226;2023-08-24T09:59:10;6.60;;;3.78;;
20713;SDS011;10518;50.742;4.226;2023-08-24T10:01:43;6.15;;;3.45;;
20713;SDS011;10518;50.742;4.226;2023-08-24T10:04:12;8.82;;;3.70;;
20713;SDS011;10518;50.742;4.226;2023-08-24T10:06:39;5.05;;;3.45;;
20713;SDS011;10518;50.742;4.226;2023-08-24T10:09:07;6.28;;;3.30;;
20713;SDS011;10518;50.742;4.226;2023-08-24T10:11:41;6.00;;;3.15;;
20713;SDS011;10518;50.742;4.226;2023-08-24T10:14:15;6.95;;;3.45;;
20713;SDS011;10518;50.742;4.226;2023-08-24T10:16:49;6.60;;;3.75;;
20713;SDS011;10518;50.742;4.226;2023-08-24T10:19:17;4.97;;;3.33;;
20713;SDS011;10518;50.742;4.226;2023-08-24T10:21:45;5.85;;;3.75;;
20713;SDS011;10518;50.742;4.226;2023-08-24T10:24:11;5.82;;;3.40;;
20713;SDS011;10518;50.742;4.226;2023-08-24T10:26:39;7.05;;;3.55;;
20713;SDS011;10518;50.742;4.226;2023-08-24T10:29:06;4.15;;;2.88;;
20713;SDS011;10518;50.742;4.226;2023-08-24T10:31:31;6.93;;;3.80;;
20713;SDS011;10518;50.742;4.226;2023-08-24T10:33:58;5.88;;;3.70;;
20713;SDS011;10518;50.742;4.226;2023-08-24T10:36:25;4.55;;;3.17;;
20713;SDS011;10518;50.742;4.226;2023-08-24T10:38:53;4.80;;;3.10;;
20713;SDS011;10518;50.742;4.226;2023-08-24T10:41:25;5.07;;;3.00;;
20713;SDS011;10518;50.742;4.226;2023-08-24T10:43:51;5.25;;;3.17;;
20713;SDS011;10518;50.742;4.226;2023-08-24T10:46:17;5.18;;;2.95;;
20713;SDS011;10518;50.742;4.226;2023-08-24T10:53:53;4.13;;;3.10;;
20713;SDS011;10518;50.742;4.226;2023-08-24T10:56:21;5.93;;;3.30;;
20713;SDS011;10518;50.742;4.226;2023-08-24T10:59:09;5.22;;;3.47;;
20713;SDS011;10518;50.742;4.226;2023-08-24T11:01:38;6.32;;;3.55;;
20713;SDS011;10518;50.742;4.226;2023-08-24T11:04:05;5.88;;;3.53;;
20713;SDS011;10518;50.742;4.226;2023-08-24T11:06:31;5.60;;;3.10;;
20713;SDS011;10518;50.742;4.226;2023-08-24T11:09:07;4.05;;;2.90;;
20713;SDS011;10518;50.742;4.226;2023-08-24T11:11:43;7.00;;;3.10;;
20713;SDS011;10518;50.742;4.226;2023-08-24T11:14:22;5.22;;;3.40;;
20713;SDS011;10518;50.742;4.226;2023-08-24T11:16:50;4.28;;;3.03;;
20713;SDS011;10518;50.742;4.226;2023-08-24T11:19:16;6.00;;;3.05;;
20713;SDS011;10518;50.742;4.226;2023-08-24T11:21:43;3.83;;;2.88;;
20713;SDS011;10518;50.742;4.226;2023-08-24T11:24:10;4.75;;;3.10;;
20713;SDS011;10518;50.742;4.226;2023-08-24T11:26:42;3.25;;;2.50;;
20713;SDS011;10518;50.742;4.226;2023-08-24T11:29:09;5.22;;;3.25;;
20713;SDS011;10518;50.742;4.226;2023-08-24T11:31:36;5.85;;;3.33;;
20713;SDS011;10518;50.742;4.226;2023-08-24T11:34:02;5.22;;;2.53;;
20713;SDS011;10518;50.742;4.226;2023-08-24T11:36:29;5.82;;;3.33;;
20713;SDS011;10518;50.742;4.226;2023-08-24T11:39:06;5.78;;;2.60;;
20713;SDS011;10518;50.742;4.226;2023-08-24T11:41:32;4.45;;;2.78;;
20713;SDS011;10518;50.742;4.226;2023-08-24T11:43:58;5.47;;;2.78;;
20713;SDS011;10518;50.742;4.226;2023-08-24T11:46:25;4.28;;;2.92;;
20713;SDS011;10518;50.742;4.226;2023-08-24T11:48:54;5.90;;;3.63;;
20713;SDS011;10518;50.742;4.226;2023-08-24T11:51:19;4.30;;;3.08;;
20713;SDS011;10518;50.742;4.226;2023-08-24T11:53:45;4.30;;;2.67;;
20713;SDS011;10518;50.742;4.226;2023-08-24T11:56:12;5.28;;;3.40;;
20713;SDS011;10518;50.742;4.226;2023-08-24T11:58:39;5.93;;;3.70;;
20713;SDS011;10518;50.742;4.226;2023-08-24T12:01:05;8.98;;;3.80;;
20713;SDS011;10518;50.742;4.226;2023-08-24T12:03:31;5.10;;;3.30;;
20713;SDS011;10518;50.742;4.226;2023-08-24T12:06:01;7.38;;;3.78;;
20713;SDS011;10518;50.742;4.226;2023-08-24T12:08:29;6.28;;;3.60;;
20713;SDS011;10518;50.742;4.226;2023-08-24T12:10:55;5.93;;;3.65;;
20713;SDS011;10518;50.742;4.226;2023-08-24T12:13:21;6.45;;;3.70;;
20713;SDS011;10518;50.742;4.226;2023-08-24T12:15:47;6.03;;;3.95;;
20713;SDS011;10518;50.742;4.226;2023-08-24T12:18:15;7.75;;;3.90;;
20713;SDS011;10518;50.742;4.226;2023-08-24T12:20:41;6.00;;;3.65;;
20713;SDS011;10518;50.742;4.226;2023-08-24T12:23:07;8.15;;;3.97;;
20713;SDS011;10518;50.742;4.226;2023-08-24T12:25:37;7.68;;;4.20;;
20713;SDS011;10518;50.742;4.226;2023-08-24T12:28:07;8.70;;;4.30;;
20713;SDS011;10518;50.742;4.226;2023-08-24T12:30:44;6.75;;;3.70;;
20713;SDS011;10518;50.742;4.226;2023-08-24T12:33:20;6.00;;;3.40;;
20713;SDS011;10518;50.742;4.226;2023-08-24T12:35:46;8.95;;;3.30;;
20713;SDS011;10518;50.742;4.226;2023-08-24T12:38:12;5.40;;;3.25;;
20713;SDS011;10518;50.742;4.226;2023-08-24T12:40:38;4.18;;;2.78;;
20713;SDS011;10518;50.742;4.226;2023-08-24T12:43:04;5.72;;;3.55;;
20713;SDS011;10518;50.742;4.226;2023-08-24T12:45:29;6.50;;;3.10;;
20713;SDS011;10518;50.742;4.226;2023-08-24T12:47:56;6.70;;;3.03;;
20713;SDS011;10518;50.742;4.226;2023-08-24T12:50:21;7.13;;;2.50;;
20713;SDS011;10518;50.742;4.226;2023-08-24T12:52:47;4.50;;;2.72;;
20713;SDS011;10518;50.742;4.226;2023-08-24T12:55:12;3.60;;;2.47;;
20713;SDS011;10518;50.742;4.226;2023-08-24T12:57:38;3.92;;;2.72;;
20713;SDS011;10518;50.742;4.226;2023-08-24T13:00:04;3.75;;;2.17;;
20713;SDS011;10518;50.742;4.226;2023-08-24T13:02:31;3.72;;;2.45;;
20713;SDS011;10518;50.742;4.226;2023-08-24T13:04:56;2.80;;;2.15;;
20713;SDS011;10518;50.742;4.226;2023-08-24T13:07:26;5.10;;;1.95;;
20713;SDS011;10518;50.742;4.226;2023-08-24T13:09:51;2.50;;;1.88;;
20713;SDS011;10518;50.742;4.226;2023-08-24T13:12:17;4.18;;;1.88;;
20713;SDS011;10518;50.742;4.226;2023-08-24T13:14:42;3.42;;;1.88;;
20713;SDS011;10518;50.742;4.226;2023-08-24T13:17:08;2.70;;;1.85;;
20713;SDS011;10518;50.742;4.226;2023-08-24T13:19:34;2.00;;;1.65;;
20713;SDS011;10518;50.742;4.226;2023-08-24T13:21:59;1.77;;;1.60;;
20713;SDS011;10518;50.742;4.226;2023-08-24T13:24:25;2.10;;;1.60;;
20713;SDS011;10518;50.742;4.226;2023-08-24T13:26:50;3.90;;;1.92;;
20713;SDS011;10518;50.742;4.226;2023-08-24T13:29:16;2.53;;;1.52;;
20713;SDS011;10518;50.742;4.226;2023-08-24T13:31:41;3.83;;;1.88;;
20713;SDS011;10518;50.742;4.226;2023-08-24T13:34:07;5.13;;;1.40;;
20713;SDS011;10518;50.742;4.226;2023-08-24T13:36:33;1.58;;;1.27;;
20713;SDS011;10518;50.742;4.226;2023-08-24T13:38:59;2.35;;;1.65;;
20713;SDS011;10518;50.742;4.226;2023-08-24T13:41:25;2.88;;;1.70;;
20713;SDS011;10518;50.742;4.226;2023-08-24T13:43:50;2.45;;;1.73;;
20713;SDS011;10518;50.742;4.226;2023-08-24T13:46:16;1.55;;;1.38;;
20713;SDS011;10518;50.742;4.226;2023-08-24T13:48:41;1.75;;;1.55;;
20713;SDS011;10518;50.742;4.226;2023-08-24T13:51:07;3.45;;;1.80;;
20713;SDS011;10518;50.742;4.226;2023-08-24T13:53:33;2.25;;;1.65;;
20713;SDS011;10518;50.742;4.226;2023-08-24T13:55:59;3.97;;;1.88;;
20713;SDS011;10518;50.742;4.226;2023-08-24T13:58:24;2.47;;;1.38;;
20713;SDS011;10518;50.742;4.226;2023-08-24T14:00:56;3.75;;;1.52;;
20713;SDS011;10518;50.742;4.226;2023-08-24T14:03:23;5.60;;;1.80;;
20713;SDS011;10518;50.742;4.226;2023-08-24T14:05:49;2.60;;;1.92;;
20713;SDS011;10518;50.742;4.226;2023-08-24T14:08:17;4.47;;;1.70;;
20713;SDS011;10518;50.742;4.226;2023-08-24T14:10:43;1.83;;;1.38;;
20713;SDS011;10518;50.742;4.226;2023-08-24T14:13:08;2.97;;;1.52;;
20713;SDS011;10518;50.742;4.226;2023-08-24T14:15:34;4.68;;;2.00;;
20713;SDS011;10518;50.742;4.226;2023-08-24T14:18:00;2.22;;;1.63;;
20713;SDS011;10518;50.742;4.226;2023-08-24T14:20:25;4.03;;;1.58;;
20713;SDS011;10518;50.742;4.226;2023-08-24T14:22:52;5.18;;;1.60;;
20713;SDS011;10518;50.742;4.226;2023-08-24T14:25:18;2.28;;;1.48;;
20713;SDS011;10518;50.742;4.226;2023-08-24T14:27:43;1.95;;;1.35;;
20713;SDS011;10518;50.742;4.226;2023-08-24T14:30:09;1.95;;;1.50;;
20713;SDS011;10518;50.742;4.226;2023-08-24T14:32:35;3.08;;;1.38;;
20713;SDS011;10518;50.742;4.226;2023-08-24T14:35:01;2.25;;;1.55;;
20713;SDS011;10518;50.742;4.226;2023-08-24T14:37:28;1.85;;;1.23;;
20713;SDS011;10518;50.742;4.226;2023-08-24T14:39:55;2.78;;;1.33;;
20713;SDS011;10518;50.742;4.226;2023-08-24T14:42:20;4.68;;;1.17;;
20713;SDS011;10518;50.742;4.226;2023-08-24T14:44:46;2.00;;;1.38;;
20713;SDS011;10518;50.742;4.226;2023-08-24T14:47:12;3.13;;;1.38;;
20713;SDS011;10518;50.742;4.226;2023-08-24T14:49:37;1.23;;;1.00;;